Time;durP1;ratioP1;P1;durP2;ratioP2;P2;SDS_P1;SDS_P2;PMS_P1;PMS_P2;Temp;Humidity;BMP_temperature;BMP_pressure;BME280_temperature;BME280_humidity;BME280_pressure;Samples;Min_cycle;Max_cycle;Signal;HPM_P1;HPM_P2
2020/12/01 00:01:50;;;;;;;24.17;12.30;;;-2.10;99.90;;;;;;6188156;23;20007;-84
2020/12/01 00:04:16;;;;;;;25.13;12.45;;;-2.10;99.90;;;;;;6160345;23;20001;-84
2020/12/01 00:06:42;;;;;;;28.35;13.85;;;-2.10;99.90;;;;;;6160253;23;20417;-84
2020/12/01 00:09:08;;;;;;;28.80;13.75;;;-2.10;99.90;;;;;;6162462;23;19997;-83
2020/12/01 00:11:33;;;;;;;25.70;13.18;;;-2.10;99.90;;;;;;6160629;23;20033;-82
2020/12/01 00:13:59;;;;;;;24.25;12.05;;;-2.10;99.90;;;;;;6160177;23;20448;-85
2020/12/01 00:16:25;;;;;;;25.65;12.30;;;-2.10;99.90;;;;;;6187570;23;20281;-83
2020/12/01 00:18:50;;;;;;;22.15;11.15;;;-2.10;99.90;;;;;;6186146;23;20009;-83
2020/12/01 00:21:18;;;;;;;20.98;9.63;;;-2.20;99.90;;;;;;6187418;23;20009;-83
2020/12/01 00:23:45;;;;;;;26.50;13.30;;;-2.20;99.90;;;;;;6186970;23;19997;-85
2020/12/01 00:26:13;;;;;;;22.85;11.20;;;-2.20;99.90;;;;;;6160321;23;20108;-84
2020/12/01 00:28:39;;;;;;;30.85;13.55;;;-2.20;99.90;;;;;;6187647;23;20028;-83
2020/12/01 00:31:04;;;;;;;26.90;13.63;;;-2.20;99.90;;;;;;6186506;23;20013;-84
2020/12/01 00:33:31;;;;;;;22.52;11.57;;;-2.20;99.90;;;;;;6159487;23;20012;-84
2020/12/01 00:35:56;;;;;;;23.48;11.30;;;-2.20;99.90;;;;;;6161098;23;20317;-83
2020/12/01 00:38:23;;;;;;;24.35;11.55;;;-2.20;99.90;;;;;;6186020;23;20007;-83
2020/12/01 00:40:49;;;;;;;23.73;11.07;;;-2.30;99.90;;;;;;6164135;23;20100;-82
2020/12/01 00:43:16;;;;;;;22.00;10.90;;;-2.30;99.90;;;;;;6200023;23;20452;-82
2020/12/01 00:45:43;;;;;;;25.10;12.25;;;-2.30;99.90;;;;;;6161170;23;20004;-82
2020/12/01 00:48:09;;;;;;;21.13;11.23;;;-2.20;99.90;;;;;;6186069;23;20004;-84
2020/12/01 00:50:35;;;;;;;20.23;10.77;;;-2.20;99.90;;;;;;6187538;23;20009;-84
2020/12/01 00:53:00;;;;;;;19.45;9.88;;;-2.20;99.90;;;;;;6193291;23;20012;-83
2020/12/01 00:55:26;;;;;;;22.02;9.95;;;-2.20;99.90;;;;;;6206909;23;20005;-82
2020/12/01 00:57:52;;;;;;;22.42;11.10;;;-2.20;99.90;;;;;;6168231;23;20373;-84
2020/12/01 01:00:21;;;;;;;18.33;9.90;;;-2.20;99.90;;;;;;6160151;23;20436;-82
2020/12/01 01:02:47;;;;;;;22.83;10.63;;;-2.10;99.90;;;;;;6159820;23;20005;-82
2020/12/01 01:05:13;;;;;;;23.80;11.27;;;-2.20;99.90;;;;;;6187593;23;20008;-82
2020/12/01 01:07:38;;;;;;;23.67;11.57;;;-2.10;99.90;;;;;;6186475;23;20056;-82
2020/12/01 01:10:05;;;;;;;27.95;11.80;;;-2.20;99.90;;;;;;6159867;23;20349;-84
2020/12/01 01:12:31;;;;;;;25.63;12.23;;;-2.20;99.90;;;;;;6187640;23;20001;-83
2020/12/01 01:14:56;;;;;;;22.88;11.05;;;-2.20;99.90;;;;;;6159896;23;20074;-83
2020/12/01 01:17:22;;;;;;;30.48;14.13;;;-2.10;99.90;;;;;;6160442;23;20322;-84
2020/12/01 01:19:48;;;;;;;29.63;13.93;;;-2.20;99.90;;;;;;6160948;23;20005;-84
2020/12/01 01:22:13;;;;;;;27.60;13.80;;;-2.20;99.90;;;;;;6160210;23;20032;-84
2020/12/01 01:24:39;;;;;;;24.33;12.77;;;-2.20;99.90;;;;;;6187993;23;20003;-83
2020/12/01 01:27:05;;;;;;;26.70;12.20;;;-2.10;99.90;;;;;;6186634;23;20290;-82
2020/12/01 01:29:31;;;;;;;24.05;11.57;;;-2.10;99.90;;;;;;6187128;23;20025;-82
2020/12/01 01:31:57;;;;;;;24.98;11.68;;;-2.10;99.90;;;;;;6201936;23;19985;-83
2020/12/01 01:34:24;;;;;;;23.88;12.15;;;-2.00;99.90;;;;;;6204892;23;20004;-83
2020/12/01 01:36:50;;;;;;;24.95;10.80;;;-2.00;99.90;;;;;;6203935;23;19998;-82
2020/12/01 01:39:15;;;;;;;27.83;12.82;;;-2.00;99.90;;;;;;6169865;23;20008;-84
2020/12/01 01:41:42;;;;;;;19.95;10.68;;;-2.00;99.90;;;;;;6190606;23;20009;-84
2020/12/01 01:44:29;;;;;;;26.13;11.48;;;-2.00;99.90;;;;;;6189245;23;20005;-84
2020/12/01 01:47:24;;;;;;;25.92;12.00;;;-1.90;99.90;;;;;;6162772;23;20009;-83
2020/12/01 01:50:14;;;;;;;26.92;12.73;;;-1.90;99.90;;;;;;6162717;23;20094;-84
2020/12/01 01:52:43;;;;;;;26.55;12.82;;;-1.90;99.90;;;;;;6172056;23;20009;-84
2020/12/01 01:55:21;;;;;;;26.40;12.68;;;-1.80;99.90;;;;;;6162441;23;20009;-84
2020/12/01 01:57:51;;;;;;;21.52;10.23;;;-1.80;99.90;;;;;;6162387;23;20005;-85
2020/12/01 02:00:43;;;;;;;22.15;10.23;;;-1.90;99.90;;;;;;6162873;23;20012;-83
2020/12/01 02:03:10;;;;;;;22.03;11.13;;;-1.90;99.90;;;;;;6163000;23;20097;-84
2020/12/01 02:05:35;;;;;;;25.90;11.88;;;-2.00;99.90;;;;;;6189634;23;20005;-83
2020/12/01 02:08:01;;;;;;;27.25;11.95;;;-2.00;99.90;;;;;;6162371;23;20004;-84
2020/12/01 02:10:28;;;;;;;26.83;12.60;;;-2.10;99.90;;;;;;6163230;23;20060;-84
2020/12/01 02:12:59;;;;;;;29.63;12.63;;;-2.10;99.90;;;;;;6193482;23;20396;-84
2020/12/01 02:15:25;;;;;;;23.27;11.52;;;-2.10;99.90;;;;;;6169952;23;20151;-85
2020/12/01 02:17:51;;;;;;;24.25;12.00;;;-2.10;99.90;;;;;;6193776;23;20009;-84
2020/12/01 02:20:19;;;;;;;25.60;11.05;;;-2.10;99.90;;;;;;6161613;23;20009;-84
2020/12/01 02:22:51;;;;;;;20.92;10.60;;;-2.00;99.90;;;;;;6163411;23;20032;-84
2020/12/01 02:25:18;;;;;;;24.95;12.02;;;-2.00;99.90;;;;;;6192456;23;20040;-84
2020/12/01 02:27:52;;;;;;;28.23;13.63;;;-1.90;99.90;;;;;;6191036;23;20001;-85
2020/12/01 02:30:19;;;;;;;22.92;11.68;;;-1.90;99.90;;;;;;6164883;23;20005;-84
2020/12/01 02:32:44;;;;;;;23.15;11.60;;;-1.90;99.90;;;;;;6166043;23;20032;-84
2020/12/01 02:35:11;;;;;;;21.55;10.45;;;-1.80;99.90;;;;;;6165942;23;20096;-83
2020/12/01 02:37:38;;;;;;;21.17;9.73;;;-1.80;99.90;;;;;;6167308;23;20007;-83
2020/12/01 02:40:08;;;;;;;24.50;13.27;;;-1.80;99.90;;;;;;6192874;23;20001;-83
2020/12/01 02:42:34;;;;;;;26.25;12.40;;;-1.80;99.90;;;;;;6173813;23;20077;-85
2020/12/01 02:45:00;;;;;;;16.67;9.32;;;-1.80;99.90;;;;;;6212169;23;20004;-85
2020/12/01 02:47:26;;;;;;;19.80;10.15;;;-1.80;99.90;;;;;;6169778;23;20345;-84
2020/12/01 02:49:52;;;;;;;18.27;10.45;;;-1.80;99.90;;;;;;6189896;23;20089;-83
2020/12/01 02:52:20;;;;;;;21.67;10.32;;;-1.80;99.90;;;;;;6189333;23;19997;-82
2020/12/01 02:54:47;;;;;;;23.65;11.35;;;-1.80;99.90;;;;;;6188699;23;20430;-83
2020/12/01 02:57:13;;;;;;;20.80;9.43;;;-1.80;99.90;;;;;;6188135;23;20426;-83
2020/12/01 02:59:39;;;;;;;20.30;10.43;;;-1.90;99.90;;;;;;6162303;23;20421;-82
2020/12/01 03:02:05;;;;;;;25.17;12.82;;;-1.80;99.90;;;;;;6166146;23;20064;-84
2020/12/01 03:04:31;;;;;;;22.50;11.75;;;-1.80;99.90;;;;;;6192450;23;20256;-84
2020/12/01 03:06:56;;;;;;;23.90;11.18;;;-1.90;99.90;;;;;;6166493;23;20028;-84
2020/12/01 03:09:22;;;;;;;23.65;11.73;;;-1.90;99.90;;;;;;6165998;23;20005;-84
2020/12/01 03:11:48;;;;;;;20.48;10.02;;;-1.90;99.90;;;;;;6165728;23;20337;-84
2020/12/01 03:14:14;;;;;;;19.88;9.70;;;-1.90;99.90;;;;;;6192504;23;20004;-84
2020/12/01 03:16:40;;;;;;;22.23;10.98;;;-1.90;99.90;;;;;;6164995;23;20040;-84
2020/12/01 03:19:06;;;;;;;21.77;11.65;;;-1.90;99.90;;;;;;6165074;23;20036;-84
2020/12/01 03:21:31;;;;;;;21.85;10.80;;;-1.80;99.90;;;;;;6167493;23;20013;-83
2020/12/01 03:23:57;;;;;;;18.95;9.88;;;-1.80;99.90;;;;;;6182990;23;20007;-83
2020/12/01 03:26:23;;;;;;;21.30;9.70;;;-1.80;99.90;;;;;;6183835;23;19993;-84
2020/12/01 03:28:49;;;;;;;16.80;8.77;;;-1.80;99.90;;;;;;6164720;23;20012;-83
2020/12/01 03:31:17;;;;;;;22.67;10.65;;;-1.80;99.90;;;;;;6190523;23;20028;-84
2020/12/01 03:33:43;;;;;;;23.55;11.57;;;-1.80;99.90;;;;;;6190738;23;20025;-84
2020/12/01 03:36:09;;;;;;;20.92;9.55;;;-1.80;99.90;;;;;;6163720;23;20020;-83
2020/12/01 03:38:34;;;;;;;24.75;12.98;;;-1.80;99.90;;;;;;6163683;23;20059;-83
2020/12/01 03:41:00;;;;;;;24.10;12.10;;;-1.80;99.90;;;;;;6164112;23;20005;-83
2020/12/01 03:43:26;;;;;;;21.73;11.10;;;-1.90;99.90;;;;;;6191768;23;20378;-83
2020/12/01 03:45:52;;;;;;;24.35;11.93;;;-1.80;99.90;;;;;;6190682;23;20008;-83
2020/12/01 03:48:17;;;;;;;26.35;12.80;;;-1.80;99.90;;;;;;6163180;23;20002;-82
2020/12/01 03:50:43;;;;;;;24.15;11.18;;;-1.80;99.90;;;;;;6190090;23;20072;-84
2020/12/01 03:53:09;;;;;;;24.67;12.10;;;-1.80;99.90;;;;;;6192397;23;20085;-81
2020/12/01 03:55:35;;;;;;;23.27;12.02;;;-1.80;99.90;;;;;;6165694;23;20009;-83
2020/12/01 03:58:00;;;;;;;22.23;10.98;;;-1.80;99.90;;;;;;6189725;23;20430;-83
2020/12/01 04:00:28;;;;;;;20.30;10.55;;;-1.80;99.90;;;;;;6189922;23;20336;-82
2020/12/01 04:02:55;;;;;;;22.48;9.90;;;-1.70;99.90;;;;;;6189436;23;20337;-83
2020/12/01 04:05:24;;;;;;;20.27;9.02;;;-1.70;99.90;;;;;;6189487;23;20074;-82
2020/12/01 04:07:52;;;;;;;21.38;10.68;;;-1.70;99.90;;;;;;6162612;23;19997;-83
2020/12/01 04:10:19;;;;;;;22.90;11.40;;;-1.70;99.90;;;;;;6190167;23;20008;-83
2020/12/01 04:12:45;;;;;;;21.25;10.25;;;-1.60;99.90;;;;;;6189696;23;20039;-83
2020/12/01 04:15:13;;;;;;;19.95;10.27;;;-1.70;99.90;;;;;;6189420;23;20333;-82
2020/12/01 04:17:39;;;;;;;20.15;10.30;;;-1.60;99.90;;;;;;6162224;23;20060;-82
2020/12/01 04:20:06;;;;;;;18.88;9.60;;;-1.60;99.90;;;;;;6189709;23;20028;-83
2020/12/01 04:22:32;;;;;;;17.63;9.02;;;-1.60;99.90;;;;;;6189027;23;20005;-83
2020/12/01 04:24:57;;;;;;;20.08;10.38;;;-1.60;99.90;;;;;;6189127;23;20260;-82
2020/12/01 04:27:23;;;;;;;23.40;11.75;;;-1.60;99.90;;;;;;6188929;23;20072;-83
2020/12/01 04:29:49;;;;;;;18.33;9.55;;;-1.60;99.90;;;;;;6188642;23;20005;-82
2020/12/01 04:32:14;;;;;;;18.73;10.02;;;-1.60;99.90;;;;;;6189372;23;20008;-83
2020/12/01 04:34:40;;;;;;;21.83;10.07;;;-1.60;99.90;;;;;;6188479;23;20380;-83
2020/12/01 04:37:06;;;;;;;21.77;10.77;;;-1.50;99.90;;;;;;6188962;23;20005;-82
2020/12/01 04:39:33;;;;;;;19.67;10.48;;;-1.50;99.90;;;;;;6165702;23;19993;-84
2020/12/01 04:41:59;;;;;;;20.10;10.45;;;-1.50;99.90;;;;;;6171685;23;20005;-84
2020/12/01 04:44:30;;;;;;;21.05;10.35;;;-1.50;99.90;;;;;;6163908;23;20013;-83
2020/12/01 04:46:59;;;;;;;30.08;12.93;;;-1.50;99.90;;;;;;6189855;23;20071;-84
2020/12/01 04:49:31;;;;;;;20.58;10.77;;;-1.50;99.90;;;;;;6189348;23;20031;-84
2020/12/01 04:52:42;;;;;;;23.17;11.83;;;-1.50;99.80;;;;;;6163388;23;20060;-85
2020/12/01 04:55:29;;;;;;;21.23;10.30;;;-1.60;99.70;;;;;;6184095;23;20115;-84
2020/12/01 04:58:32;;;;;;;23.98;11.60;;;-1.70;99.80;;;;;;6162649;23;20033;-83
2020/12/01 05:01:07;;;;;;;21.40;10.98;;;-1.60;99.90;;;;;;6162663;23;20001;-81
2020/12/01 05:03:43;;;;;;;22.08;11.10;;;-1.60;99.90;;;;;;6162700;23;20005;-82
2020/12/01 05:06:39;;;;;;;26.17;11.65;;;-1.60;99.60;;;;;;6166671;23;19997;-84
2020/12/01 05:09:15;;;;;;;19.50;9.65;;;-1.60;99.50;;;;;;6166979;23;20089;-83
2020/12/01 05:11:58;;;;;;;19.02;9.98;;;-1.50;99.60;;;;;;6194697;23;20012;-84
2020/12/01 05:14:31;;;;;;;26.83;12.05;;;-1.50;99.60;;;;;;6166793;23;20005;-85
2020/12/01 05:17:36;;;;;;;20.55;9.23;;;-1.50;99.40;;;;;;6192944;23;20031;-83
2020/12/01 05:20:03;;;;;;;20.70;10.82;;;-1.40;99.20;;;;;;6186425;23;20047;-84
2020/12/01 05:22:29;;;;;;;20.38;9.63;;;-1.40;98.60;;;;;;6162353;23;20000;-84
2020/12/01 05:24:54;;;;;;;22.20;9.80;;;-1.40;98.60;;;;;;6186386;23;20374;-84
2020/12/01 05:27:21;;;;;;;18.70;9.25;;;-1.40;98.60;;;;;;6186818;23;20005;-84
2020/12/01 05:30:15;;;;;;;17.20;9.40;;;-1.40;98.30;;;;;;6188346;23;20012;-85
2020/12/01 05:32:50;;;;;;;18.98;9.15;;;-1.40;98.00;;;;;;6181968;23;20064;-84
2020/12/01 05:35:24;;;;;;;17.95;8.93;;;-1.40;98.00;;;;;;6161418;23;20041;-83
2020/12/01 05:37:56;;;;;;;19.98;9.90;;;-1.40;97.70;;;;;;6208617;23;20032;-83
2020/12/01 05:40:22;;;;;;;16.27;8.70;;;-1.40;97.30;;;;;;6178341;23;20028;-83
2020/12/01 05:42:48;;;;;;;19.42;9.73;;;-1.40;97.60;;;;;;6159651;23;20631;-83
2020/12/01 05:45:29;;;;;;;15.43;8.77;;;-1.40;97.40;;;;;;6160203;23;20047;-83
2020/12/01 05:48:19;;;;;;;15.90;7.70;;;-1.40;97.20;;;;;;6160599;23;20036;-85
2020/12/01 05:51:14;;;;;;;16.10;8.50;;;-1.40;97.30;;;;;;6188453;23;20053;-86
2020/12/01 05:54:16;;;;;;;16.00;7.47;;;-1.30;97.10;;;;;;6176371;23;20005;-86
2020/12/01 05:56:58;;;;;;;15.30;8.33;;;-1.20;97.00;;;;;;6164657;23;20009;-84
2020/12/01 06:00:04;;;;;;;16.25;8.43;;;-1.20;96.90;;;;;;6167706;23;20345;-86
2020/12/01 06:03:39;;;;;;;15.40;8.30;;;-1.10;96.50;;;;;;6128832;23;20005;-84
2020/12/01 06:06:36;;;;;;;14.40;7.60;;;-1.10;96.10;;;;;;6042695;23;20011;-86
2020/12/01 06:09:57;;;;;;;13.52;7.25;;;-1.10;96.00;;;;;;6067798;23;20001;-86
2020/12/01 06:13:14;;;;;;;14.93;7.88;;;-1.00;96.10;;;;;;6200196;23;20039;-84
2020/12/01 06:16:27;;;;;;;13.50;6.97;;;-1.00;95.30;;;;;;6056372;23;20007;-85
2020/12/01 06:26:42;;;;;;;12.90;6.97;;;-0.90;95.00;;;;;;5880442;24;20027;-83
2020/12/01 06:29:46;;;;;;;9.37;4.97;;;-0.90;94.90;;;;;;5883760;24;20037;-87
2020/12/01 06:32:59;;;;;;;8.57;4.65;;;-0.80;95.20;;;;;;5906569;24;20093;-85
2020/12/01 06:40:12;;;;;;;10.60;5.20;;;-0.70;94.90;;;;;;5949257;24;20143;-85
2020/12/01 06:43:22;;;;;;;14.00;6.55;;;-0.60;94.90;;;;;;5923942;24;20017;-84
2020/12/01 06:46:51;;;;;;;12.55;6.30;;;-0.60;94.50;;;;;;5920360;24;20021;-85
2020/12/01 07:07:51;;;;;;;11.57;6.18;;;-0.50;96.40;;;;;;5767918;24;20046;-83
2020/12/01 07:11:34;;;;;;;9.27;5.10;;;-0.40;98.10;;;;;;5702376;25;20427;-83
2020/12/01 07:18:22;;;;;;;10.82;5.80;;;-0.30;97.60;;;;;;5864458;24;20020;-84
2020/12/01 07:21:15;;;;;;;17.40;6.65;;;-0.20;98.00;;;;;;5849866;24;20412;-84
2020/12/01 07:24:37;;;;;;;14.30;7.20;;;-0.10;98.30;;;;;;5884068;23;20471;-83
2020/12/01 07:27:39;;;;;;;18.48;9.10;;;-0.10;98.20;;;;;;5968116;23;20090;-83
2020/12/01 07:30:23;;;;;;;25.80;12.00;;;-0.10;98.60;;;;;;6159738;23;20020;-84
2020/12/01 07:32:58;;;;;;;18.50;10.00;;;-0.20;98.90;;;;;;6139967;23;20032;-84
2020/12/01 07:36:10;;;;;;;20.63;10.75;;;-0.20;99.10;;;;;;6166284;23;20005;-85
2020/12/01 07:39:14;;;;;;;17.20;8.77;;;-0.30;98.80;;;;;;6172658;23;19997;-85
2020/12/01 07:42:23;;;;;;;14.50;8.63;;;-0.40;99.40;;;;;;6183994;23;20005;-84
2020/12/01 07:45:29;;;;;;;14.02;7.55;;;-0.40;99.80;;;;;;6164781;23;20001;-83
2020/12/01 07:48:01;;;;;;;11.50;6.38;;;-0.40;99.80;;;;;;6105698;23;20028;-84
2020/12/01 07:50:31;;;;;;;13.07;6.97;;;-0.40;99.90;;;;;;6164444;23;20009;-83
2020/12/01 07:53:08;;;;;;;11.23;6.70;;;-0.40;99.90;;;;;;6180059;23;20171;-83
2020/12/01 07:56:17;;;;;;;8.50;5.13;;;-0.30;99.90;;;;;;6189729;23;20005;-84
2020/12/01 07:59:18;;;;;;;14.23;7.28;;;-0.20;99.90;;;;;;6162624;23;20009;-83
2020/12/01 08:01:46;;;;;;;11.23;5.85;;;-0.20;99.90;;;;;;6162191;23;20009;-83
2020/12/01 08:04:25;;;;;;;11.68;6.05;;;-0.10;99.90;;;;;;6188639;23;20001;-85
2020/12/01 08:10:13;;;;;;;10.83;6.10;;;0.00;99.90;;;;;;6188974;23;20479;-83
2020/12/01 08:12:48;;;;;;;10.07;5.57;;;0.10;99.90;;;;;;6157434;23;20089;-84
2020/12/01 08:15:16;;;;;;;14.23;5.95;;;0.20;99.90;;;;;;6162064;23;20005;-85
2020/12/01 08:17:43;;;;;;;19.20;9.18;;;0.30;99.90;;;;;;6161223;23;20005;-84
2020/12/01 08:20:12;;;;;;;13.45;6.80;;;0.40;99.90;;;;;;6161829;23;20005;-84
2020/12/01 08:22:41;;;;;;;15.90;7.47;;;0.50;99.90;;;;;;6165940;23;20017;-85
2020/12/01 08:25:17;;;;;;;10.35;6.25;;;0.50;99.90;;;;;;6195843;23;20001;-85
2020/12/01 08:27:51;;;;;;;13.15;6.32;;;0.60;99.90;;;;;;6170315;23;20005;-85
2020/12/01 08:30:35;;;;;;;14.30;7.57;;;0.70;99.90;;;;;;6171954;23;20005;-85
2020/12/01 08:33:17;;;;;;;13.90;6.68;;;0.70;99.80;;;;;;6184454;23;20040;-86
2020/12/01 08:35:48;;;;;;;;;;;0.70;99.60;;;;;;6201959;23;20028;-85
2020/12/01 08:38:31;;;;;;;18.75;7.10;;;0.70;99.70;;;;;;6166324;23;19901;-84
2020/12/01 08:41:28;;;;;;;11.98;6.57;;;0.80;99.70;;;;;;6190478;23;20036;-84
2020/12/01 08:44:39;;;;;;;17.55;7.07;;;0.90;99.90;;;;;;6163579;23;20001;-84
2020/12/01 08:47:07;;;;;;;17.27;7.35;;;0.90;99.90;;;;;;6120483;23;20041;-83
2020/12/01 08:49:47;;;;;;;12.95;7.13;;;0.90;99.70;;;;;;6162484;23;20012;-84
2020/12/01 08:52:40;;;;;;;14.25;6.70;;;0.90;99.80;;;;;;6162741;23;20001;-84
2020/12/01 08:55:55;;;;;;;10.10;5.13;;;0.90;99.90;;;;;;6161668;23;20012;-84
2020/12/01 08:58:26;;;;;;;13.95;5.82;;;1.10;99.90;;;;;;6181135;23;20001;-84
2020/12/01 09:01:00;;;;;;;11.73;6.00;;;1.20;99.90;;;;;;6162041;23;20020;-84
2020/12/01 09:03:28;;;;;;;12.55;6.40;;;1.20;99.90;;;;;;6188382;23;20419;-83
2020/12/01 09:05:54;;;;;;;12.23;6.03;;;1.30;99.90;;;;;;6187847;23;20337;-84
2020/12/01 09:11:41;;;;;;;13.75;5.63;;;1.50;99.90;;;;;;6190684;23;20004;-85
2020/12/01 09:14:30;;;;;;;12.73;5.57;;;1.50;99.90;;;;;;6188173;23;20005;-85
2020/12/01 09:17:06;;;;;;;15.18;6.32;;;1.60;99.90;;;;;;6187757;23;20005;-85
2020/12/01 09:22:09;;;;;;;15.38;6.60;;;1.70;99.90;;;;;;6199786;23;20005;-85
2020/12/01 09:24:34;;;;;;;9.57;5.45;;;1.70;99.90;;;;;;6162669;23;20001;-85
2020/12/01 09:27:11;;;;;;;10.32;5.20;;;1.70;99.90;;;;;;6163476;23;20380;-85
2020/12/01 09:29:37;;;;;;;13.25;6.40;;;1.70;99.90;;;;;;6165067;23;20001;-86
2020/12/01 09:32:07;;;;;;;14.13;5.38;;;1.70;99.80;;;;;;6165647;23;19997;-85
2020/12/01 09:34:35;;;;;;;12.13;5.80;;;1.70;99.90;;;;;;6192527;23;20341;-85
2020/12/01 09:37:03;;;;;;;9.38;5.25;;;1.80;99.90;;;;;;6166744;23;20452;-85
2020/12/01 09:39:30;;;;;;;8.55;4.97;;;1.80;99.90;;;;;;6194345;23;20023;-86
2020/12/01 09:42:03;;;;;;;9.07;4.68;;;1.80;99.00;;;;;;6164666;23;20013;-85
2020/12/01 09:47:10;;;;;;;9.93;3.53;;;1.90;98.30;;;;;;6202302;23;20005;-84
2020/12/01 09:49:36;;;;;;;5.43;3.30;;;1.90;98.10;;;;;;6166587;23;20008;-85
2020/12/01 09:52:09;;;;;;;13.93;4.53;;;1.90;97.80;;;;;;6166329;23;20005;-85
2020/12/01 09:54:42;;;;;;;14.90;5.10;;;1.90;97.20;;;;;;6165977;23;20120;-85
2020/12/01 10:00:29;;;;;;;10.32;3.92;;;2.00;97.90;;;;;;6146711;23;20020;-86
2020/12/01 10:10:47;;;;;;;9.48;3.80;;;1.80;97.70;;;;;;6199779;23;20013;-85
2020/12/01 10:37:15;;;;;;;6.78;4.30;;;2.20;98.70;;;;;;6200609;23;20441;-85
2020/12/01 10:39:41;;;;;;;7.65;3.20;;;2.20;98.60;;;;;;6162554;23;20037;-85
2020/12/01 10:42:12;;;;;;;6.07;3.13;;;2.30;98.70;;;;;;6163159;23;20024;-85
2020/12/01 10:44:38;;;;;;;6.10;3.85;;;2.40;98.70;;;;;;6162968;23;20080;-85
2020/12/01 10:47:04;;;;;;;8.15;4.15;;;2.40;98.20;;;;;;6163786;23;20011;-86
2020/12/01 10:49:30;;;;;;;19.42;4.75;;;2.40;98.00;;;;;;6190531;23;20063;-85
2020/12/01 10:51:56;;;;;;;8.75;4.50;;;2.40;98.10;;;;;;6164620;23;20021;-85
2020/12/01 10:54:22;;;;;;;8.60;4.93;;;2.40;98.40;;;;;;6164438;23;20009;-85
2020/12/01 10:56:52;;;;;;;7.53;4.30;;;2.50;98.40;;;;;;6190235;23;20079;-84
2020/12/01 10:59:18;;;;;;;7.88;3.50;;;2.60;98.70;;;;;;6189539;23;20373;-84
2020/12/01 11:01:44;;;;;;;11.30;7.55;;;2.80;98.30;;;;;;6188922;23;20000;-85
2020/12/01 11:04:11;;;;;;;10.57;6.03;;;2.80;97.70;;;;;;6189398;23;20004;-86
2020/12/01 11:06:37;;;;;;;7.82;4.35;;;2.80;98.20;;;;;;6164432;23;20001;-85
2020/12/01 11:09:05;;;;;;;9.32;3.72;;;2.80;97.90;;;;;;6164695;23;19997;-85
2020/12/01 11:11:31;;;;;;;8.95;4.22;;;2.90;98.20;;;;;;6163823;23;20016;-85
2020/12/01 11:13:57;;;;;;;6.28;3.83;;;2.90;98.00;;;;;;6164505;23;20322;-85
2020/12/01 11:16:22;;;;;;;6.03;3.35;;;2.90;98.20;;;;;;6190183;23;20021;-85
2020/12/01 11:18:48;;;;;;;4.65;2.75;;;2.90;98.20;;;;;;6164305;23;20029;-85
2020/12/01 11:21:14;;;;;;;8.35;3.75;;;3.00;98.70;;;;;;6163866;23;20009;-85
2020/12/01 11:23:39;;;;;;;7.43;4.00;;;3.00;98.50;;;;;;6163769;23;20001;-85
2020/12/01 11:26:05;;;;;;;5.97;3.67;;;3.00;98.40;;;;;;6183070;23;20024;-87
2020/12/01 11:28:31;;;;;;;6.57;3.83;;;2.90;98.10;;;;;;6186080;23;20004;-87
2020/12/01 15:29:07;;;;;;;6.95;4.45;;;2.30;99.90;;;;;;6254612;22;20066;31
2020/12/01 15:32:40;;;;;;;5.20;3.95;;;2.30;99.90;;;;;;6201441;23;20050;-89
2020/12/01 15:42:58;;;;;;;5.75;4.05;;;2.30;99.90;;;;;;6182928;23;20023;-87
2020/12/01 15:53:22;;;;;;;18.00;8.63;;;2.30;99.90;;;;;;6059488;23;20108;-89
2020/12/01 16:03:27;;;;;;;6.15;4.72;;;2.30;99.90;;;;;;6059894;23;20006;-88
2020/12/01 16:06:52;;;;;;;7.15;4.93;;;2.30;99.90;;;;;;6030941;23;20008;-89
2020/12/01 16:09:54;;;;;;;8.02;4.90;;;2.30;99.90;;;;;;6058947;23;19998;-88
2020/12/01 16:13:13;;;;;;;10.02;6.72;;;2.20;99.90;;;;;;6059429;23;20015;-88
2020/12/01 16:22:55;;;;;;;;;;;2.20;99.90;;;;;;6176371;23;20020;-89
2020/12/01 16:26:10;;;;;;;9.15;7.63;;;2.20;99.90;;;;;;6147827;23;19927;-90
2020/12/01 16:35:15;;;;;;;6.75;5.28;;;2.20;99.90;;;;;;6249904;22;20022;-89
2020/12/01 16:38:22;;;;;;;6.03;5.00;;;2.30;99.90;;;;;;6200160;23;20031;-88
2020/12/01 16:41:35;;;;;;;12.60;5.68;;;2.30;99.90;;;;;;6222317;23;20096;-87
2020/12/01 16:44:01;;;;;;;;;;;2.30;99.90;;;;;;6198634;23;20071;-85
2020/12/01 16:47:08;;;;;;;8.65;5.53;;;2.20;99.90;;;;;;6222469;23;19900;-87
2020/12/01 16:50:30;;;;;;;8.60;5.70;;;2.30;99.90;;;;;;6069892;23;20013;-86
2020/12/01 16:53:55;;;;;;;9.50;5.72;;;2.30;99.90;;;;;;6013163;23;20007;-87
2020/12/01 16:57:14;;;;;;;;;;;;;;;;;;;;;
2020/12/01 17:05:34;;;;;;;9.27;6.32;;;2.30;99.90;;;;;;6230814;22;20017;-86
2020/12/01 17:08:16;;;;;;;80.30;10.25;;;2.20;99.90;;;;;;6108641;23;20007;-89
2020/12/01 17:11:28;;;;;;;7.15;5.53;;;2.30;99.90;;;;;;6050359;23;20010;-87
2020/12/01 17:18:06;;;;;;;8.55;6.43;;;2.30;99.90;;;;;;5991981;24;20085;-88
2020/12/01 17:20:50;;;;;;;6.53;5.20;;;2.30;99.90;;;;;;5970532;24;20008;-87
2020/12/01 17:23:31;;;;;;;7.50;5.05;;;2.30;99.90;;;;;;5968983;24;20004;-88
2020/12/01 17:26:05;;;;;;;6.93;5.43;;;2.30;99.90;;;;;;5971382;24;20028;-87
2020/12/01 17:28:36;;;;;;;7.65;6.15;;;2.30;99.90;;;;;;5999376;23;20036;-86
2020/12/01 17:31:40;;;;;;;7.10;5.70;;;2.20;99.90;;;;;;6006761;23;20090;-88
2020/12/01 17:34:43;;;;;;;5.60;4.18;;;2.30;99.90;;;;;;5932813;23;20444;-89
2020/12/01 17:37:27;;;;;;;6.63;5.03;;;2.30;99.90;;;;;;6110938;23;20011;-88
2020/12/01 17:40:22;;;;;;;7.05;5.05;;;2.30;99.90;;;;;;6171504;23;20005;-87
2020/12/01 17:43:05;;;;;;;5.53;4.40;;;2.20;99.90;;;;;;6175340;23;20001;-88
2020/12/01 17:45:35;;;;;;;;;;;2.20;99.90;;;;;;6176730;23;20025;-85
2020/12/01 17:48:37;;;;;;;5.53;3.95;;;2.20;99.90;;;;;;6199844;23;19923;-85
2020/12/01 17:51:21;;;;;;;6.28;4.95;;;2.20;99.90;;;;;;6197837;23;20001;-86
2020/12/01 17:54:07;;;;;;;6.60;4.82;;;2.20;99.90;;;;;;6170278;23;20445;-85
2020/12/01 17:56:33;;;;;;;4.53;3.58;;;2.20;99.90;;;;;;6172869;23;20067;-84
2020/12/01 17:59:00;;;;;;;3.85;2.95;;;2.20;99.90;;;;;;6199636;23;20104;-85
2020/12/01 18:01:29;;;;;;;5.22;3.60;;;2.20;99.90;;;;;;6200238;23;20039;-85
2020/12/01 18:03:57;;;;;;;6.68;5.13;;;2.20;99.90;;;;;;6171150;23;20004;-85
2020/12/01 18:06:24;;;;;;;6.35;4.38;;;2.20;99.90;;;;;;6172003;23;20001;-84
2020/12/01 18:08:57;;;;;;;7.07;4.93;;;2.20;99.90;;;;;;6198211;23;20007;-85
2020/12/01 18:11:38;;;;;;;5.60;4.63;;;2.20;99.90;;;;;;6170234;23;20424;-85
2020/12/01 18:14:22;;;;;;;7.63;6.05;;;2.30;99.90;;;;;;6196369;23;20008;-85
2020/12/01 18:17:01;;;;;;;10.30;6.57;;;2.20;99.90;;;;;;6195471;23;20004;-85
2020/12/01 18:19:57;;;;;;;6.78;4.95;;;2.20;99.90;;;;;;6197424;23;20001;-85
2020/12/01 18:22:35;;;;;;;6.57;4.45;;;2.20;99.90;;;;;;6174540;23;20029;-86
2020/12/01 18:25:19;;;;;;;8.93;6.82;;;2.20;99.90;;;;;;6174125;23;20005;-85
2020/12/01 18:27:49;;;;;;;9.88;7.53;;;2.20;99.90;;;;;;6174735;23;20039;-85
2020/12/01 18:30:25;;;;;;;9.02;6.60;;;2.20;99.90;;;;;;6200222;23;20324;-85
2020/12/01 18:33:19;;;;;;;8.60;5.03;;;2.30;99.90;;;;;;6173447;23;20005;-85
2020/12/01 18:35:46;;;;;;;8.35;5.00;;;2.30;99.90;;;;;;6174454;23;20001;-85
2020/12/01 18:38:25;;;;;;;7.90;6.00;;;2.30;99.90;;;;;;6175268;23;20001;-85
2020/12/01 18:40:53;;;;;;;6.68;4.93;;;2.20;99.90;;;;;;6171649;23;20012;-86
2020/12/01 18:43:25;;;;;;;8.73;6.88;;;2.30;99.90;;;;;;6198337;23;20013;-85
2020/12/01 18:45:56;;;;;;;11.40;6.95;;;2.30;99.90;;;;;;6204677;23;20008;-85
2020/12/01 18:48:22;;;;;;;9.32;6.30;;;2.30;99.90;;;;;;6179681;23;20094;-85
2020/12/01 18:50:51;;;;;;;8.73;5.82;;;2.20;99.90;;;;;;6202734;23;20001;-85
2020/12/01 18:53:20;;;;;;;7.68;6.18;;;2.20;99.90;;;;;;6171081;23;20125;-86
2020/12/01 18:55:50;;;;;;;9.32;5.90;;;2.20;99.90;;;;;;6196983;23;20001;-85
2020/12/01 18:58:19;;;;;;;10.40;6.20;;;2.20;99.90;;;;;;6196686;23;20464;-86
2020/12/01 19:00:45;;;;;;;11.70;6.22;;;2.30;99.90;;;;;;6197866;23;20008;-86
2020/12/01 19:03:26;;;;;;;12.65;7.18;;;2.20;99.90;;;;;;6198498;23;20001;-86
2020/12/01 19:05:53;;;;;;;14.10;8.55;;;2.20;99.90;;;;;;6198487;23;20005;-85
2020/12/01 19:08:19;;;;;;;11.32;7.75;;;2.20;99.90;;;;;;6198834;23;20135;-86
2020/12/01 19:10:46;;;;;;;11.23;7.30;;;2.20;99.90;;;;;;6198280;23;20033;-86
2020/12/01 19:13:12;;;;;;;8.15;5.75;;;2.10;99.90;;;;;;6198909;23;20015;-86
2020/12/01 19:15:38;;;;;;;11.73;6.88;;;2.10;99.90;;;;;;6199062;23;20001;-85
2020/12/01 19:18:05;;;;;;;9.48;6.60;;;2.10;99.90;;;;;;6171351;23;20035;-86
2020/12/01 19:20:31;;;;;;;9.00;5.97;;;2.10;99.90;;;;;;6173162;23;20088;-86
2020/12/01 19:22:57;;;;;;;7.82;5.03;;;2.10;99.90;;;;;;6198490;23;20008;-85
2020/12/01 19:25:23;;;;;;;6.18;4.55;;;2.20;99.90;;;;;;6173721;23;20024;-85
2020/12/01 19:27:50;;;;;;;8.10;5.25;;;2.20;99.90;;;;;;6200071;23;20008;-85
2020/12/01 19:30:19;;;;;;;7.63;5.10;;;2.20;99.90;;;;;;6177601;23;20016;-86
2020/12/01 19:32:46;;;;;;;10.35;6.45;;;2.20;99.90;;;;;;6176534;23;20005;-85
2020/12/01 19:35:14;;;;;;;8.73;6.45;;;2.20;99.90;;;;;;6177128;23;20096;-86